Midpines, California
Current Conditions -  °F | °C
As of 4:55 AM on Saturday 25 Oct 2014 (Local Time) from KMER Reporting Station
Clear Clear  
Wind Chill: 54°   Ceiling: Unl
Heat Index: 54°   Visibility: 1.5mi
Dew Point: 54°   Wind: 3mph
Humidity: 100%   Direction: 50°NE
Pressure: 29.96"   Gusts: NA
Location:  37.54°N, 119.92°W
Report Text: KMER 251155Z AUTO 05003KT 1 1/2SM CLR 12/12 A2996 RMK AO1
Loading
Personal Weather Stations






























Interactive Weather Map
Tropical Storm Tracking
New forecast layout! Learn more

10-Day Weather Forecast

Advertisements
Track Severe Weather on mobile